Terminal Aerodrome Forecast
Issued by NWS

Home | Current Version | Previous Version | Text Only | Print | Product List | Glossary On
Versions: 1 2 3 4 5 6 7 8 9 10 11 12 13 14 15 16 17
000
FTUS46 KOTX 281720
TAFMWH
TAF
KMWH 281720Z 2818/2918 17006KT P6SM OVC090
     FM282100 21008G15KT P6SM VCSH BKN060 OVC150
     FM290100 19008KT P6SM SCT060 BKN150
     FM290700 19005KT P6SM -RA BKN050 OVC080
     FM290900 19007KT P6SM -RA OVC040=

USA.gov is the U.S. government's official web portal to all federal, state and local government web resources and services.